PASY METAR and TAF weather

Enter ICAO airport designator
Station Type Date Time Source
PASY METAR 2019/06/17 03:55 UTC NOAA

PASY 170355Z 32017KT 5SM BR BKN005 07/05 A3024 RMK AO2A SLP244 RVRNO $


Station Type Date Time Source
PASY Decoded METAR 2019/06/17 03:55 UTC NOAA

SHEMYA EARECKSON AS, AK, United States (PASY) 52-43N 174-07E
Jun 16, 2019 - 11:55 PM EDT / 2019.06.17 0355 UTC
Wind: from the NW (320 degrees) at 20 MPH (17 KT):0
Visibility: 5 mile(s):0
Sky conditions: mostly cloudy
Weather: mist
Temperature: 44 F (7 C)
Dew Point: 41 F (5 C)
Relative Humidity: 87%
Pressure (altimeter): 30.24 in. Hg (1024 hPa)
ob: PASY 170355Z 32017KT 5SM BR BKN005 07/05 A3024 RMK AO2A SLP244 RVRNO
cycle: 4

Station Type Date Time Source
PASY TAF 2019/06/17 03:27 UTC NOAA

TAF
AMD PASY 170310Z 1703/1804 31012G18KT 9999 BKN005 QNH2922INS
BECMG 1716/1717 32009KT 9999 FEW140 QNH2926INS TX07/1703Z TN04/1718Z

Example: see airport list